EmailTwitter


Observations de surface / Québec / CYQB (71714)

Régions: Québec | Canada | États-Unis | Europe | France | UK | Ailleurs
Station
Affichage
Infos & localisation pour CYQB (71714) | Aide pour décoder les METARs

Observations prises le 2018-04-19 à 09H00 UTC à QUEBEC A, QB (CYQB)

Etat du ciel: partiellement nuageux.

Température: 0.0 Celsius

Point de rosée: 0.0 Celsius

Humidité relative: 100%

Facteur vent: -4.

Vents: Sud-ouest à 13 km/h ou 7 noeuds.

Pression au niveau moyen de la mer: 100.23 kilopascals.

Calage altimétrique: 100.20 kilopascals ou 29.59 pouces de mercure.

Visibilité horizontale: 15.00 milles terrestres ou 24.00 kilomètres.

Hauteur du plafond: 2438 mètres ( 8000 pieds ).

Observation METAR:

CYQB 190900Z 23007KT 15SM FEW008 SCT044 BKN080 00/M00 A2959 RMK SF1SC4AC2 SF TR

SLP023=